Time;durP1;ratioP1;P1;durP2;ratioP2;P2;SDS_P1;SDS_P2;PMS_P1;PMS_P2;Temp;Humidity;BMP_temperature;BMP_pressure;BME280_temperature;BME280_humidity;BME280_pressure;Samples;Min_cycle;Max_cycle;Signal;HPM_P1;HPM_P2
2021/04/06 00:01:40;;;;;;;2.03;0.90;;;2.40;57.70;;;;;;5135340;27;20199;-69
2021/04/06 00:04:13;;;;;;;2.53;1.35;;;2.40;57.00;;;;;;5135406;27;20642;-69
2021/04/06 00:06:45;;;;;;;2.95;1.15;;;2.50;56.60;;;;;;5135541;27;20223;-70
2021/04/06 00:09:14;;;;;;;6.60;1.75;;;2.50;57.00;;;;;;5134722;27;20241;-70
2021/04/06 00:11:42;;;;;;;6.80;1.33;;;2.50;56.70;;;;;;5135546;27;20704;-69
2021/04/06 00:14:11;;;;;;;1.90;1.20;;;2.50;55.80;;;;;;5135005;27;20255;-70
2021/04/06 00:16:39;;;;;;;3.78;1.30;;;2.50;56.50;;;;;;5135480;27;20200;-70
2021/04/06 00:19:10;;;;;;;2.80;1.50;;;2.60;57.40;;;;;;5134714;27;20243;-70
2021/04/06 00:21:37;;;;;;;3.05;1.40;;;2.60;57.10;;;;;;5135335;27;20192;-69
2021/04/06 00:24:07;;;;;;;3.22;1.40;;;2.60;56.80;;;;;;5134775;27;20190;-70
2021/04/06 00:26:46;;;;;;;2.30;1.40;;;2.60;55.90;;;;;;5135231;27;20188;-70
2021/04/06 00:29:15;;;;;;;3.28;1.50;;;2.50;56.40;;;;;;5134561;27;20812;-70
2021/04/06 00:31:44;;;;;;;2.80;1.40;;;2.40;56.70;;;;;;5135145;27;20195;-70
2021/04/06 00:34:13;;;;;;;5.20;1.20;;;2.30;56.50;;;;;;5133824;27;20183;-70
2021/04/06 00:36:40;;;;;;;4.15;2.15;;;2.40;56.80;;;;;;5134946;27;20196;-70
2021/04/06 00:39:08;;;;;;;3.47;1.70;;;2.40;57.00;;;;;;5134184;27;20219;-69
2021/04/06 00:41:37;;;;;;;4.75;1.35;;;2.30;56.80;;;;;;5135002;27;20191;-70
2021/04/06 00:44:13;;;;;;;4.55;1.98;;;2.30;57.20;;;;;;5133751;27;20188;-69
2021/04/06 00:46:44;;;;;;;2.97;1.40;;;2.20;56.70;;;;;;5134837;27;20195;-69
2021/04/06 00:49:13;;;;;;;4.80;1.33;;;2.30;57.10;;;;;;5133940;27;20276;-69
2021/04/06 00:51:41;;;;;;;2.83;1.33;;;2.30;56.90;;;;;;5134658;27;20207;-69
2021/04/06 00:54:12;;;;;;;2.25;1.40;;;2.30;56.50;;;;;;5134186;27;20199;-69
2021/04/06 00:56:41;;;;;;;2.90;1.45;;;2.20;56.40;;;;;;5134201;27;20211;-69
2021/04/06 00:59:09;;;;;;;5.10;1.98;;;2.10;56.80;;;;;;5134160;27;20268;-69
2021/04/06 01:01:39;;;;;;;5.22;1.20;;;2.00;56.70;;;;;;5134376;27;20192;-69
2021/04/06 01:04:08;;;;;;;2.83;1.75;;;1.90;57.70;;;;;;5133996;27;20207;-69
2021/04/06 01:06:53;;;;;;;6.13;2.13;;;1.70;57.20;;;;;;5134253;27;20195;-69
2021/04/06 01:09:33;;;;;;;3.05;1.88;;;1.70;58.10;;;;;;5133707;27;20192;-69
2021/04/06 01:12:01;;;;;;;3.25;1.83;;;1.70;58.00;;;;;;5133930;27;20191;-69
2021/04/06 01:14:29;;;;;;;2.70;1.40;;;1.60;57.80;;;;;;5134282;27;20665;-69
2021/04/06 01:16:56;;;;;;;3.28;1.45;;;1.50;58.50;;;;;;5133759;27;20184;-69
2021/04/06 01:19:28;;;;;;;8.88;2.95;;;1.40;58.20;;;;;;5133537;27;20230;-69
2021/04/06 01:21:57;;;;;;;3.72;1.13;;;1.40;58.30;;;;;;5133838;27;20188;-69
2021/04/06 01:24:26;;;;;;;2.58;1.00;;;1.30;58.70;;;;;;5133703;27;20179;-69
2021/04/06 01:26:53;;;;;;;3.65;1.45;;;1.30;58.90;;;;;;5134110;27;20198;-69
2021/04/06 01:29:20;;;;;;;2.78;1.58;;;1.30;58.40;;;;;;5133669;27;20601;-69
2021/04/06 01:31:47;;;;;;;5.10;1.50;;;1.30;58.70;;;;;;5133368;27;20187;-69
2021/04/06 01:34:14;;;;;;;2.10;1.20;;;1.30;58.90;;;;;;5132923;27;20273;-69
2021/04/06 01:36:42;;;;;;;2.40;1.30;;;1.20;58.50;;;;;;5134023;27;20218;-69
2021/04/06 01:39:14;;;;;;;5.13;1.40;;;1.10;58.40;;;;;;5132793;27;20290;-69
2021/04/06 01:41:45;;;;;;;2.80;1.33;;;1.00;59.10;;;;;;5124796;27;20188;-69
2021/04/06 01:44:12;;;;;;;4.38;2.00;;;1.00;58.80;;;;;;5133419;27;20182;-69
2021/04/06 01:46:43;;;;;;;3.45;1.35;;;0.90;59.00;;;;;;5133750;27;20191;-69
2021/04/06 01:49:11;;;;;;;2.45;1.40;;;0.80;59.00;;;;;;5133431;27;20306;-69
2021/04/06 01:51:38;;;;;;;4.38;1.30;;;0.80;59.20;;;;;;5133154;27;20202;-70
2021/04/06 01:54:08;;;;;;;10.20;1.85;;;0.80;59.00;;;;;;5133263;27;20184;-69
2021/04/06 01:56:44;;;;;;;2.60;1.20;;;0.90;58.60;;;;;;5132781;27;20180;-69
2021/04/06 01:59:16;;;;;;;1.90;1.10;;;0.90;58.20;;;;;;5132781;27;20219;-69
2021/04/06 02:01:42;;;;;;;2.05;1.30;;;0.70;58.00;;;;;;5133137;27;20525;-69
2021/04/06 02:04:10;;;;;;;3.08;1.60;;;0.60;58.70;;;;;;5133160;27;20199;-69
2021/04/06 02:06:39;;;;;;;4.60;2.30;;;0.70;58.80;;;;;;5133200;27;20192;-69
2021/04/06 02:09:09;;;;;;;3.50;1.40;;;0.70;58.90;;;;;;5132408;27;20223;-69
2021/04/06 02:11:38;;;;;;;4.80;1.23;;;0.80;58.50;;;;;;5132326;27;20191;-69
2021/04/06 02:14:06;;;;;;;3.70;1.45;;;0.90;58.30;;;;;;5133336;27;20280;-69
2021/04/06 02:16:50;;;;;;;7.38;2.78;;;1.00;57.80;;;;;;5132931;28;20230;-69
2021/04/06 02:19:30;;;;;;;3.70;1.30;;;1.10;57.70;;;;;;5132851;27;20302;-69
2021/04/06 02:22:04;;;;;;;5.13;2.10;;;1.10;56.90;;;;;;5130027;28;20191;-69
2021/04/06 02:24:36;;;;;;;3.35;0.98;;;1.10;56.10;;;;;;5133160;27;20653;-69
2021/04/06 02:27:15;;;;;;;3.78;1.58;;;1.10;55.90;;;;;;5133299;27;20290;-69
2021/04/06 02:29:49;;;;;;;3.78;1.50;;;1.10;55.40;;;;;;5132474;27;20211;-69
2021/04/06 02:32:19;;;;;;;2.55;1.40;;;1.10;55.20;;;;;;5132961;27;20262;-69
2021/04/06 02:34:47;;;;;;;3.65;1.63;;;1.10;55.10;;;;;;5133227;27;20191;-69
2021/04/06 02:37:16;;;;;;;2.80;1.60;;;1.00;55.20;;;;;;5132223;27;20290;-69
2021/04/06 02:39:43;;;;;;;2.65;1.23;;;1.00;55.50;;;;;;5132696;27;20238;-70
2021/04/06 02:42:34;;;;;;;3.08;1.50;;;1.10;55.80;;;;;;5133121;27;20637;-69
2021/04/06 02:45:10;;;;;;;2.78;1.00;;;1.00;55.10;;;;;;5117814;27;20188;-69
2021/04/06 02:47:41;;;;;;;2.92;1.30;;;1.00;54.70;;;;;;5132760;27;20219;-69
2021/04/06 02:50:11;;;;;;;1.83;0.95;;;1.00;54.90;;;;;;5132436;27;20234;-69
2021/04/06 02:52:41;;;;;;;3.85;1.10;;;1.00;54.90;;;;;;5132809;27;20303;-69
2021/04/06 02:55:10;;;;;;;2.95;1.33;;;0.90;54.80;;;;;;5132676;27;20642;-69
2021/04/06 02:57:43;;;;;;;6.22;1.45;;;1.00;55.20;;;;;;5132992;27;20271;-69
2021/04/06 03:00:29;;;;;;;4.43;1.25;;;1.10;54.50;;;;;;5132196;27;20212;-69
2021/04/06 03:02:59;;;;;;;4.28;1.50;;;1.10;54.50;;;;;;5133091;27;20191;-69
2021/04/06 03:05:36;;;;;;;4.93;1.13;;;1.10;54.20;;;;;;5132525;28;20191;-69
2021/04/06 03:08:03;;;;;;;3.88;1.10;;;1.10;54.10;;;;;;5132793;27;20195;-69
2021/04/06 03:10:32;;;;;;;2.25;0.80;;;1.10;53.60;;;;;;5132202;28;20282;-69
2021/04/06 03:13:05;;;;;;;2.72;1.05;;;1.10;53.70;;;;;;5132796;27;20183;-69
2021/04/06 03:15:32;;;;;;;5.35;1.10;;;1.00;53.80;;;;;;5132371;27;20188;-69
2021/04/06 03:18:05;;;;;;;4.28;1.25;;;1.00;53.70;;;;;;5132386;27;20231;-69
2021/04/06 03:20:36;;;;;;;2.88;1.00;;;1.00;54.00;;;;;;5133882;27;20215;-69
2021/04/06 03:23:04;;;;;;;3.47;0.90;;;1.00;54.00;;;;;;5135943;27;20223;-69
2021/04/06 03:25:32;;;;;;;2.42;1.00;;;1.10;54.50;;;;;;5136476;27;20214;-69
2021/04/06 03:28:06;;;;;;;2.50;1.17;;;1.10;54.70;;;;;;5135914;27;20188;-70
2021/04/06 03:30:34;;;;;;;3.70;1.40;;;1.10;54.10;;;;;;5135717;27;20187;-69
2021/04/06 03:33:06;;;;;;;3.85;1.55;;;1.10;54.00;;;;;;5136183;27;20336;-69
2021/04/06 03:35:34;;;;;;;2.25;0.90;;;1.10;54.20;;;;;;5115482;28;20251;-69
2021/04/06 03:38:03;;;;;;;4.75;1.10;;;1.00;54.10;;;;;;5115595;27;20189;-69
2021/04/06 03:40:31;;;;;;;3.58;1.00;;;1.00;54.00;;;;;;5135338;27;20713;-69
2021/04/06 03:43:11;;;;;;;2.13;1.10;;;1.00;54.30;;;;;;5136405;27;20198;-70
2021/04/06 03:45:53;;;;;;;2.60;1.27;;;1.00;54.10;;;;;;5115718;28;20192;-69
2021/04/06 03:48:22;;;;;;;4.88;1.48;;;0.90;54.30;;;;;;5116350;27;20224;-69
2021/04/06 03:50:49;;;;;;;2.55;1.25;;;0.90;54.80;;;;;;5135465;27;20187;-69
2021/04/06 03:53:16;;;;;;;1.90;0.90;;;1.00;54.90;;;;;;5135821;27;20184;-69
2021/04/06 03:55:45;;;;;;;2.70;1.20;;;1.00;54.90;;;;;;5135949;27;20191;-69
2021/04/06 03:58:16;;;;;;;5.70;1.30;;;1.10;55.00;;;;;;5135830;27;20585;-69
2021/04/06 04:00:43;;;;;;;3.20;1.45;;;1.10;54.90;;;;;;5135262;27;20251;-69
2021/04/06 04:03:11;;;;;;;2.13;1.13;;;1.10;54.60;;;;;;5135888;27;20200;-69
2021/04/06 04:05:39;;;;;;;1.70;0.95;;;1.10;53.90;;;;;;5135461;27;20207;-69
2021/04/06 04:08:05;;;;;;;2.13;1.23;;;1.10;53.80;;;;;;5135712;27;20220;-69
2021/04/06 04:10:32;;;;;;;2.10;1.00;;;1.10;53.80;;;;;;5135059;27;20541;-69
2021/04/06 04:12:59;;;;;;;1.83;0.85;;;1.10;54.00;;;;;;5135586;27;20283;-69
2021/04/06 04:15:26;;;;;;;2.55;1.20;;;1.10;53.40;;;;;;5135440;27;20187;-69
2021/04/06 04:17:54;;;;;;;3.45;1.58;;;1.00;53.00;;;;;;5135632;27;20184;-69
2021/04/06 04:20:22;;;;;;;3.00;1.50;;;1.00;52.50;;;;;;5134691;27;20215;-70
2021/04/06 04:22:51;;;;;;;4.65;1.33;;;0.70;52.10;;;;;;5135678;27;20219;-69
2021/04/06 04:25:20;;;;;;;2.63;1.13;;;0.50;52.40;;;;;;5135137;27;20190;-69
2021/04/06 04:27:47;;;;;;;6.80;1.10;;;0.50;52.50;;;;;;5135551;27;20556;-69
2021/04/06 04:30:16;;;;;;;3.72;1.40;;;0.40;52.90;;;;;;5135103;27;20568;-69
2021/04/06 04:32:43;;;;;;;3.85;1.30;;;0.20;52.80;;;;;;5134594;27;20218;-69
2021/04/06 04:35:11;;;;;;;2.67;1.25;;;0.10;53.00;;;;;;5135007;27;20183;-69
2021/04/06 04:37:37;;;;;;;6.55;1.58;;;0.10;53.40;;;;;;5135256;27;20209;-69
2021/04/06 04:40:07;;;;;;;5.35;1.83;;;0.10;54.00;;;;;;5134198;27;20215;-69
2021/04/06 04:42:35;;;;;;;4.35;1.70;;;0.00;53.90;;;;;;5135229;27;20221;-69
2021/04/06 04:45:04;;;;;;;3.55;1.10;;;0.00;53.60;;;;;;5134571;27;20264;-69
2021/04/06 04:47:31;;;;;;;3.08;1.70;;;0.00;53.60;;;;;;5134983;27;20222;-69
2021/04/06 04:50:00;;;;;;;3.70;1.40;;;0.00;53.80;;;;;;5134339;27;20186;-69
2021/04/06 04:52:26;;;;;;;2.10;1.00;;;0.10;54.10;;;;;;5134833;27;20191;-69
2021/04/06 04:55:06;;;;;;;2.25;1.40;;;0.00;52.90;;;;;;5134835;27;20180;-69
2021/04/06 04:57:33;;;;;;;2.63;1.20;;;-0.20;53.50;;;;;;5134464;27;20657;-69
2021/04/06 05:00:00;;;;;;;2.60;1.40;;;-0.20;53.90;;;;;;5134385;27;20215;-69
2021/04/06 05:02:27;;;;;;;3.58;1.35;;;-0.30;53.80;;;;;;5134623;27;20244;-69
2021/04/06 05:04:59;;;;;;;3.80;1.80;;;-0.30;54.00;;;;;;5134812;27;20187;-69
2021/04/06 05:07:26;;;;;;;5.78;1.75;;;-0.40;54.70;;;;;;5134294;27;20188;-69
2021/04/06 05:09:53;;;;;;;2.50;1.05;;;-0.30;55.40;;;;;;5134731;27;20646;-69
2021/04/06 05:12:21;;;;;;;1.92;1.00;;;-0.20;55.70;;;;;;5134328;27;20207;-69
2021/04/06 05:14:49;;;;;;;1.70;0.90;;;-0.10;55.60;;;;;;5134577;27;20195;-69
2021/04/06 05:17:16;;;;;;;2.40;1.10;;;-0.10;54.40;;;;;;5134103;27;20219;-69
2021/04/06 05:19:43;;;;;;;2.90;1.50;;;0.00;53.90;;;;;;5134351;27;20322;-69
2021/04/06 05:22:10;;;;;;;6.82;1.60;;;-0.10;53.90;;;;;;5133597;27;20730;-69
2021/04/06 05:24:37;;;;;;;2.10;1.20;;;-0.20;54.50;;;;;;5134210;27;20199;-69
2021/04/06 05:27:04;;;;;;;3.28;1.50;;;-0.40;55.20;;;;;;5133509;27;20237;-69
2021/04/06 05:29:32;;;;;;;3.85;1.55;;;-0.40;55.40;;;;;;5134082;27;20191;-69
2021/04/06 05:31:59;;;;;;;3.40;1.42;;;-0.30;55.60;;;;;;5133629;27;20231;-69
2021/04/06 05:34:26;;;;;;;3.00;1.63;;;-0.30;55.30;;;;;;5134129;27;20622;-69
2021/04/06 05:36:52;;;;;;;10.35;2.92;;;-0.30;56.00;;;;;;5133391;27;20191;-69
2021/04/06 05:39:20;;;;;;;3.13;1.70;;;-0.30;55.80;;;;;;5134168;27;20757;-69
2021/04/06 05:41:48;;;;;;;2.97;1.80;;;-0.30;55.90;;;;;;5132724;27;20267;-70
2021/04/06 05:44:16;;;;;;;3.17;1.92;;;-0.20;56.00;;;;;;5133072;27;20188;-69
2021/04/06 05:46:46;;;;;;;3.85;1.90;;;-0.10;55.80;;;;;;5133363;27;20657;-69
2021/04/06 05:49:15;;;;;;;4.78;1.95;;;0.00;56.30;;;;;;5134244;27;20571;-69
2021/04/06 05:51:43;;;;;;;4.18;2.20;;;0.10;56.20;;;;;;5133333;27;20240;-69
2021/04/06 05:54:13;;;;;;;7.10;1.80;;;0.30;55.50;;;;;;5133105;27;20184;-69
2021/04/06 05:56:41;;;;;;;5.25;2.90;;;0.40;56.00;;;;;;5133652;27;20276;-69
2021/04/06 05:59:10;;;;;;;5.40;2.10;;;0.60;56.30;;;;;;5133314;27;20216;-69
2021/04/06 06:01:39;;;;;;;3.97;2.58;;;0.70;55.90;;;;;;5132977;27;20564;-69
2021/04/06 06:04:09;;;;;;;3.80;1.42;;;0.80;54.80;;;;;;5132914;27;20280;-69
2021/04/06 06:06:36;;;;;;;4.80;1.98;;;1.00;54.50;;;;;;5133629;27;20191;-69
2021/04/06 06:09:04;;;;;;;5.43;1.70;;;1.10;53.20;;;;;;5133407;27;20188;-69
2021/04/06 06:11:31;;;;;;;3.55;1.73;;;1.20;52.80;;;;;;5133652;27;20214;-69
2021/04/06 06:13:58;;;;;;;5.15;1.55;;;1.30;53.40;;;;;;5132581;27;20187;-69
2021/04/06 06:16:26;;;;;;;8.38;1.17;;;1.40;52.40;;;;;;5133872;27;20199;-70
2021/04/06 06:19:05;;;;;;;3.97;1.77;;;1.50;52.20;;;;;;5133225;27;20187;-69
2021/04/06 06:21:44;;;;;;;4.15;1.88;;;1.60;52.10;;;;;;5133411;27;20195;-69
2021/04/06 06:24:21;;;;;;;3.63;1.83;;;1.70;52.10;;;;;;5132802;27;20547;-69
2021/04/06 06:26:51;;;;;;;3.80;1.30;;;1.80;51.70;;;;;;5133572;27;20198;-69
2021/04/06 06:29:21;;;;;;;2.67;1.40;;;1.80;51.20;;;;;;5129868;27;20190;-69
2021/04/06 06:31:49;;;;;;;3.20;1.52;;;2.00;52.30;;;;;;5128907;27;20203;-70
2021/04/06 06:34:31;;;;;;;7.18;1.80;;;2.20;52.10;;;;;;5130088;27;20213;-69
2021/04/06 06:37:13;;;;;;;3.45;1.55;;;2.30;50.50;;;;;;5130313;27;20208;-70
2021/04/06 06:39:47;;;;;;;2.28;1.33;;;2.30;50.10;;;;;;5122921;28;20216;-69
2021/04/06 06:42:16;;;;;;;4.00;1.85;;;2.40;49.30;;;;;;5113253;28;20536;-69
2021/04/06 06:44:44;;;;;;;3.08;1.52;;;2.60;51.00;;;;;;5119993;28;20175;-70
2021/04/06 06:47:18;;;;;;;3.17;1.42;;;2.70;50.00;;;;;;5126126;28;20195;-70
2021/04/06 06:49:45;;;;;;;2.10;1.23;;;2.80;49.70;;;;;;5113790;27;20183;-70
2021/04/06 06:52:32;;;;;;;2.97;1.52;;;2.90;49.50;;;;;;5111960;28;20189;-70
2021/04/06 06:55:03;;;;;;;5.70;1.60;;;3.00;50.00;;;;;;5129334;27;20657;-70
2021/04/06 06:57:34;;;;;;;4.22;2.65;;;3.10;48.80;;;;;;5134102;27;20556;-70
2021/04/06 07:00:10;;;;;;;6.63;1.73;;;3.20;49.30;;;;;;5122496;27;20712;-70
2021/04/06 07:02:37;;;;;;;3.28;1.80;;;3.40;49.80;;;;;;5134391;27;20239;-70
2021/04/06 07:05:16;;;;;;;5.50;1.80;;;3.60;49.80;;;;;;5120052;27;20647;-70
2021/04/06 07:07:55;;;;;;;3.17;1.52;;;3.70;47.40;;;;;;5132050;27;20282;-70
2021/04/06 07:10:24;;;;;;;2.20;1.10;;;3.90;48.30;;;;;;5128634;27;20180;-69
2021/04/06 07:13:12;;;;;;;3.65;1.58;;;4.10;46.90;;;;;;5117493;27;20263;-70
2021/04/06 07:15:41;;;;;;;4.38;1.50;;;4.40;45.90;;;;;;5129814;27;20191;-70
2021/04/06 07:18:13;;;;;;;4.10;2.13;;;4.60;45.20;;;;;;5133622;27;20305;-71
2021/04/06 07:20:42;;;;;;;6.00;1.90;;;5.10;44.70;;;;;;5120522;27;20219;-69
2021/04/06 07:23:26;;;;;;;3.83;1.52;;;5.60;45.80;;;;;;5132259;27;20191;-71
2021/04/06 07:25:54;;;;;;;3.50;1.33;;;6.10;43.90;;;;;;5118171;27;20188;-72
2021/04/06 07:28:21;;;;;;;3.78;1.58;;;6.70;43.90;;;;;;5133782;27;20180;-72
2021/04/06 07:30:49;;;;;;;2.47;1.90;;;7.50;44.00;;;;;;5126014;27;20582;-71
2021/04/06 07:33:17;;;;;;;3.45;2.30;;;8.50;44.30;;;;;;5115174;27;20188;-70
2021/04/06 07:35:44;;;;;;;5.47;1.95;;;9.80;45.60;;;;;;5118307;27;20181;-70
2021/04/06 07:38:10;;;;;;;2.40;1.70;;;10.80;40.00;;;;;;5115413;27;20193;-70
2021/04/06 07:40:39;;;;;;;4.05;2.22;;;12.00;37.10;;;;;;5119290;27;20701;-70
2021/04/06 07:43:06;;;;;;;4.47;3.15;;;14.30;36.60;;;;;;5115175;27;20184;-70
2021/04/06 07:45:46;;;;;;;3.70;2.65;;;16.40;28.70;;;;;;5120185;27;20639;-71
2021/04/06 07:48:34;;;;;;;2.95;2.55;;;18.00;25.80;;;;;;5115147;27;20235;-70
2021/04/06 07:51:23;;;;;;;3.28;1.63;;;19.40;23.10;;;;;;5123758;27;20192;-71
2021/04/06 07:54:05;;;;;;;2.88;1.55;;;19.60;21.80;;;;;;5130157;27;20282;-71
2021/04/06 07:57:03;;;;;;;4.15;1.38;;;20.20;20.30;;;;;;5121717;27;20311;-70
2021/04/06 07:59:52;;;;;;;2.70;1.30;;;18.80;18.70;;;;;;5129512;27;20227;-70
2021/04/06 08:02:29;;;;;;;3.28;1.70;;;16.90;18.70;;;;;;5118010;27;20196;-69
2021/04/06 08:05:04;;;;;;;5.80;2.80;;;15.40;19.80;;;;;;5115051;27;20196;-69
2021/04/06 08:07:35;;;;;;;4.45;1.83;;;14.40;21.40;;;;;;5127839;27;20190;-69
2021/04/06 08:10:28;;;;;;;5.45;2.22;;;13.40;21.70;;;;;;5132773;27;20188;-71
2021/04/06 08:12:56;;;;;;;4.93;1.65;;;12.70;22.90;;;;;;5106297;27;20192;-70
2021/04/06 08:15:32;;;;;;;6.50;4.00;;;12.00;23.50;;;;;;5114628;27;20211;-70
2021/04/06 08:17:59;;;;;;;7.15;4.05;;;11.80;24.20;;;;;;5118489;27;20188;-70
2021/04/06 08:20:44;;;;;;;3.20;1.85;;;11.60;24.20;;;;;;5114505;27;20706;-70
2021/04/06 08:23:32;;;;;;;2.90;1.80;;;11.20;23.40;;;;;;5119899;27;20187;-70
2021/04/06 08:25:59;;;;;;;5.65;2.17;;;11.00;24.80;;;;;;5129820;27;20348;-70
2021/04/06 08:28:40;;;;;;;4.97;2.30;;;10.80;24.80;;;;;;5133209;27;20196;-70
2021/04/06 08:31:19;;;;;;;3.63;1.77;;;10.90;25.30;;;;;;5119259;27;20554;-70
2021/04/06 08:33:46;;;;;;;2.45;1.23;;;11.20;25.80;;;;;;5115873;27;20192;-71
2021/04/06 08:36:28;;;;;;;2.65;1.83;;;11.50;25.30;;;;;;5126796;27;20241;-70
2021/04/06 08:38:57;;;;;;;4.68;1.80;;;11.60;24.20;;;;;;5122824;27;20184;-71
2021/04/06 08:41:36;;;;;;;2.83;2.03;;;11.60;24.80;;;;;;5114047;27;20673;-70
2021/04/06 08:44:07;;;;;;;3.25;2.30;;;11.20;23.70;;;;;;5118666;27;20610;-71
2021/04/06 08:46:43;;;;;;;4.00;2.78;;;10.80;24.20;;;;;;5130635;27;20191;-70
2021/04/06 08:49:22;;;;;;;4.70;3.65;;;10.60;25.00;;;;;;5121537;27;20643;-70
2021/04/06 08:51:52;;;;;;;3.83;2.50;;;10.50;26.00;;;;;;5122337;27;20196;-71
2021/04/06 08:54:21;;;;;;;9.32;2.42;;;10.50;26.60;;;;;;5132101;27;20191;-71
2021/04/06 08:56:49;;;;;;;2.35;1.25;;;10.40;26.70;;;;;;5126318;27;20210;-70
2021/04/06 08:59:19;;;;;;;3.33;1.25;;;10.10;24.80;;;;;;5123114;27;20218;-71
2021/04/06 09:01:48;;;;;;;5.75;1.90;;;10.00;25.40;;;;;;5129076;27;20609;-70
2021/04/06 09:04:17;;;;;;;4.13;2.15;;;9.80;26.00;;;;;;5125732;27;20203;-70
2021/04/06 09:06:44;;;;;;;2.97;1.55;;;9.60;26.70;;;;;;5118738;27;20184;-70
2021/04/06 09:09:11;;;;;;;4.07;2.25;;;9.50;26.60;;;;;;5121869;27;20199;-71
2021/04/06 09:11:39;;;;;;;3.05;1.58;;;9.30;26.80;;;;;;5125168;27;20630;-70
2021/04/06 09:14:08;;;;;;;2.40;1.20;;;9.10;27.10;;;;;;5112603;27;20245;-71
2021/04/06 09:16:36;;;;;;;4.53;1.52;;;8.80;25.90;;;;;;5115495;27;20208;-70
2021/04/06 09:19:07;;;;;;;4.55;2.00;;;8.50;26.50;;;;;;5112343;27;20635;-70
2021/04/06 09:21:33;;;;;;;5.70;2.00;;;8.30;27.30;;;;;;5115710;27;20240;-70
2021/04/06 09:24:05;;;;;;;4.13;2.00;;;8.00;27.10;;;;;;5112425;27;20196;-70
2021/04/06 09:26:32;;;;;;;5.40;3.25;;;7.80;27.80;;;;;;5117335;27;20177;-71
2021/04/06 09:29:08;;;;;;;12.25;8.25;;;7.60;28.80;;;;;;5111992;28;20201;-71
2021/04/06 09:31:38;;;;;;;5.00;3.42;;;7.60;29.60;;;;;;5117621;27;20184;-71
2021/04/06 09:34:09;;;;;;;5.05;2.55;;;7.40;29.90;;;;;;5124297;27;20191;-70
2021/04/06 09:36:37;;;;;;;6.35;2.40;;;7.30;29.90;;;;;;5112419;27;20196;-71
2021/04/06 09:39:05;;;;;;;6.32;2.53;;;7.00;29.80;;;;;;5113482;27;20192;-70
2021/04/06 09:41:35;;;;;;;13.63;9.27;;;6.90;31.00;;;;;;5126122;27;20238;-71
2021/04/06 09:44:02;;;;;;;3.60;2.30;;;6.90;31.90;;;;;;5114257;27;20222;-70
2021/04/06 09:46:41;;;;;;;3.83;1.77;;;6.90;31.60;;;;;;5112320;27;20200;-70
2021/04/06 09:49:10;;;;;;;5.20;1.70;;;6.90;31.70;;;;;;5117544;27;20219;-70
2021/04/06 09:51:37;;;;;;;3.20;1.75;;;6.90;30.40;;;;;;5130329;27;20267;-70
2021/04/06 09:54:05;;;;;;;2.72;1.83;;;6.80;30.80;;;;;;5116973;27;20611;-70
2021/04/06 09:56:34;;;;;;;4.70;2.10;;;6.80;31.60;;;;;;5116558;27;20195;-70
2021/04/06 09:59:06;;;;;;;5.75;2.50;;;6.90;31.90;;;;;;5119985;27;20678;-70
2021/04/06 10:01:34;;;;;;;4.93;2.22;;;7.10;31.90;;;;;;5114977;27;20250;-70
2021/04/06 10:04:03;;;;;;;2.47;1.48;;;7.10;31.60;;;;;;5115518;27;20188;-70
2021/04/06 10:06:41;;;;;;;6.53;3.47;;;7.20;31.50;;;;;;5112072;27;20180;-69
2021/04/06 10:09:22;;;;;;;4.07;2.30;;;7.30;31.50;;;;;;5111262;28;20200;-70
2021/04/06 10:11:51;;;;;;;9.07;3.22;;;7.30;32.20;;;;;;5112762;27;20184;-69
2021/04/06 10:14:19;;;;;;;7.47;2.50;;;7.20;30.50;;;;;;5111453;28;20224;-70
2021/04/06 10:16:56;;;;;;;4.43;2.60;;;7.30;32.10;;;;;;5113706;28;20188;-70
2021/04/06 10:19:27;;;;;;;4.40;1.83;;;7.30;32.20;;;;;;5111257;28;20536;-70
2021/04/06 10:22:06;;;;;;;4.53;1.63;;;7.40;31.40;;;;;;5128417;28;20192;-70
2021/04/06 10:24:35;;;;;;;6.43;4.30;;;7.60;32.10;;;;;;5125399;27;20192;-70
2021/04/06 10:27:16;;;;;;;3.45;1.63;;;7.90;32.30;;;;;;5111230;28;20199;-70
2021/04/06 10:29:43;;;;;;;5.18;1.95;;;7.90;30.80;;;;;;5115344;28;20180;-70
2021/04/06 10:32:26;;;;;;;3.35;1.83;;;8.00;29.80;;;;;;5115189;27;20718;-70
2021/04/06 10:34:57;;;;;;;2.63;1.83;;;8.00;30.00;;;;;;5117246;27;20215;-70
2021/04/06 10:37:24;;;;;;;5.55;1.73;;;8.00;30.20;;;;;;5120399;27;20554;-70
2021/04/06 10:39:51;;;;;;;3.25;1.60;;;8.00;30.10;;;;;;5130144;27;20214;-70
2021/04/06 10:42:18;;;;;;;5.35;3.10;;;8.10;30.60;;;;;;5134832;27;20324;-66
2021/04/06 10:44:47;;;;;;;5.00;2.00;;;8.20;30.90;;;;;;5129358;27;20588;-71
2021/04/06 10:47:32;;;;;;;3.90;2.10;;;8.30;30.10;;;;;;5116194;27;20188;-70
2021/04/06 10:50:00;;;;;;;2.92;1.90;;;8.40;30.00;;;;;;5116426;27;20199;-71
2021/04/06 10:52:31;;;;;;;2.88;2.03;;;8.50;29.50;;;;;;5131534;27;20188;-71
2021/04/06 10:54:59;;;;;;;6.07;2.40;;;8.70;29.80;;;;;;5123412;27;20267;-70
2021/04/06 10:57:31;;;;;;;5.50;2.05;;;9.00;29.40;;;;;;5115025;27;21472;-70
2021/04/06 10:59:58;;;;;;;7.20;2.17;;;9.20;29.20;;;;;;5118402;27;20223;-70
2021/04/06 11:02:27;;;;;;;3.63;2.38;;;9.30;29.10;;;;;;5118397;27;20219;-70
2021/04/06 11:04:59;;;;;;;2.95;1.38;;;9.30;28.60;;;;;;5115264;27;20212;-70
2021/04/06 11:07:30;;;;;;;4.07;2.25;;;9.20;28.80;;;;;;5119299;27;20649;-70
2021/04/06 11:10:05;;;;;;;4.47;2.03;;;9.10;28.80;;;;;;5118662;27;20199;-69
2021/04/06 11:12:32;;;;;;;3.38;2.50;;;9.30;29.20;;;;;;5122537;27;20179;-69
2021/04/06 11:14:59;;;;;;;5.35;2.55;;;9.80;30.40;;;;;;5124932;27;20192;-70
2021/04/06 11:17:25;;;;;;;2.80;1.70;;;10.40;30.30;;;;;;5133342;27;20644;-69
2021/04/06 11:19:56;;;;;;;9.15;2.35;;;11.30;29.20;;;;;;5116030;27;20226;-69
2021/04/06 11:22:24;;;;;;;4.15;2.25;;;11.50;28.40;;;;;;5116604;27;20191;-70
2021/04/06 11:24:56;;;;;;;6.30;2.45;;;12.10;27.10;;;;;;5125340;27;20291;-70
2021/04/06 11:27:24;;;;;;;3.90;2.70;;;12.80;26.60;;;;;;5131639;27;20184;-71
2021/04/06 11:29:54;;;;;;;4.07;2.30;;;13.90;29.60;;;;;;5115862;27;20279;-71
2021/04/06 11:32:27;;;;;;;6.40;4.70;;;14.60;24.90;;;;;;5120002;27;20187;-71
2021/04/06 11:34:59;;;;;;;9.40;5.40;;;15.10;26.90;;;;;;5133366;27;20195;-71
2021/04/06 11:37:26;;;;;;;4.47;2.30;;;15.70;24.60;;;;;;5126757;27;20535;-72
2021/04/06 11:39:53;;;;;;;7.70;3.40;;;15.60;23.70;;;;;;5118260;27;20212;-70
2021/04/06 11:42:20;;;;;;;12.77;6.32;;;16.10;24.80;;;;;;5118638;27;20191;-71
2021/04/06 11:44:47;;;;;;;10.05;5.03;;;16.50;22.60;;;;;;5117024;27;20203;-70
2021/04/06 11:47:14;;;;;;;5.93;2.50;;;16.70;22.90;;;;;;5118830;27;20219;-70
2021/04/06 11:49:42;;;;;;;4.53;2.37;;;17.10;23.10;;;;;;5123511;27;20195;-71
2021/04/06 11:52:10;;;;;;;7.90;2.40;;;17.60;22.80;;;;;;5128382;27;20434;-71
2021/04/06 11:54:38;;;;;;;3.53;2.07;;;18.00;22.60;;;;;;5125600;27;20477;-70
2021/04/06 11:57:04;;;;;;;3.87;2.13;;;18.60;22.80;;;;;;5115471;27;20529;-71
2021/04/06 11:59:31;;;;;;;6.10;2.40;;;19.00;21.10;;;;;;5115024;27;20437;-71
2021/04/06 12:01:58;;;;;;;3.63;2.17;;;19.20;21.10;;;;;;5115127;27;20996;-71
2021/04/06 12:04:25;;;;;;;7.10;2.90;;;19.40;20.10;;;;;;5115373;27;20430;-70
2021/04/06 12:06:51;;;;;;;3.83;2.00;;;19.50;19.50;;;;;;5115146;27;20441;-70
2021/04/06 12:09:18;;;;;;;4.43;2.20;;;19.50;19.00;;;;;;5119510;27;20949;-69
2021/04/06 12:11:45;;;;;;;3.77;1.87;;;18.90;16.10;;;;;;5115338;27;20449;-69
2021/04/06 12:14:12;;;;;;;4.60;2.07;;;18.10;15.70;;;;;;5117761;27;21125;-69
2021/04/06 12:16:39;;;;;;;2.70;2.13;;;17.50;17.30;;;;;;5114940;27;20442;-69
2021/04/06 12:19:05;;;;;;;9.20;2.50;;;16.90;17.70;;;;;;5117855;27;20425;-68
2021/04/06 12:21:32;;;;;;;2.97;2.03;;;15.90;17.20;;;;;;5114563;27;20474;-69
2021/04/06 12:23:58;;;;;;;5.85;2.17;;;15.30;18.20;;;;;;5117538;27;20187;-68
2021/04/06 12:26:25;;;;;;;4.05;2.10;;;14.70;19.10;;;;;;5115060;27;20192;-69
2021/04/06 12:28:53;;;;;;;2.72;2.05;;;14.60;20.60;;;;;;5130623;27;20203;-69
2021/04/06 12:31:20;;;;;;;7.03;2.33;;;14.40;20.00;;;;;;5113351;27;20253;-69
2021/04/06 12:33:47;;;;;;;4.78;2.70;;;14.20;20.90;;;;;;5123627;27;20192;-71
2021/04/06 12:36:14;;;;;;;4.72;2.42;;;14.10;20.60;;;;;;5113222;27;20224;-70
2021/04/06 12:38:41;;;;;;;3.78;2.38;;;13.90;21.70;;;;;;5121532;27;20211;-70
2021/04/06 12:41:07;;;;;;;3.55;1.88;;;14.00;22.20;;;;;;5113618;27;20250;-70
2021/04/06 12:43:35;;;;;;;3.30;1.90;;;13.90;21.60;;;;;;5116704;27;20283;-70
2021/04/06 12:46:02;;;;;;;3.20;2.13;;;13.70;21.20;;;;;;5112954;27;20299;-70
2021/04/06 12:48:29;;;;;;;2.55;1.45;;;13.70;21.50;;;;;;5125437;27;20225;-70
2021/04/06 12:50:56;;;;;;;3.75;2.00;;;13.70;21.60;;;;;;5131495;27;20191;-70
2021/04/06 12:53:23;;;;;;;4.53;1.90;;;14.00;22.10;;;;;;5124355;27;20192;-70
2021/04/06 12:55:49;;;;;;;3.60;2.50;;;14.30;22.40;;;;;;5112792;27;20219;-70
2021/04/06 12:58:16;;;;;;;3.67;2.13;;;14.40;20.80;;;;;;5116161;27;20586;-70
2021/04/06 13:00:43;;;;;;;3.38;1.60;;;14.20;21.00;;;;;;5129999;27;20227;-70
2021/04/06 13:03:14;;;;;;;3.72;2.28;;;14.00;21.40;;;;;;5130998;27;20192;-70
2021/04/06 13:05:40;;;;;;;4.05;2.10;;;14.00;22.10;;;;;;5121886;27;20183;-71
2021/04/06 13:08:11;;;;;;;3.20;1.80;;;14.00;21.30;;;;;;5113262;27;20591;-70
2021/04/06 13:10:39;;;;;;;5.10;2.15;;;13.70;21.50;;;;;;5117004;27;20195;-70